Siam — SGIP — position and weather

sailwx.info

Track history (hours):
 
Tides and Currents Weather Stations Pressure Air Temp Water Temp Dewpoint Dewpoint Depression Visibility Wind Speed Wind Dir Waves Ship Positions

Siam

Last reported at 2014-Aug-30 06:10 UTC. Time now 2014-Aug-30 18:29 UTC.
Position N 55°58' E 012°43'.

Length 22 m.

Type: Passenger vessel. MMSI: 265572320.

Date/timePositionNaut miles runAvg speedWind from/ knotsBaromVisibWave heightAir tempDewpointWater temp
2014-Aug-30 06:10N 55°58' E 012°43'2 0.1
2014-Aug-29 16:33N 55°60' E 012°45'0 0.0
2014-Aug-29 15:33N 55°60' E 012°45'0 0.0
2014-Aug-29 14:33N 55°60' E 012°45'0 0.0
2014-Aug-29 13:33N 55°60' E 012°45'0 0.0
2014-Aug-29 12:33N 55°60' E 012°45'3 3.0
2014-Aug-29 11:32N 55°57' E 012°42'1 1.2
2014-Aug-29 10:32N 55°56' E 012°42'0 0.4
2014-Aug-29 09:33N 55°56' E 012°42'0 0.2
2014-Aug-29 08:30N 55°56' E 012°42'0 0.3
2014-Aug-29 07:24N 55°56' E 012°42'0 0.5
2014-Aug-29 06:33N 55°57' E 012°42'3 3.3
2014-Aug-29 05:32N 55°60' E 012°45'0 0.0
2014-Aug-29 04:32N 55°60' E 012°45'0 0.0
2014-Aug-29 03:32N 55°60' E 012°45'0 0.0
2014-Aug-29 02:29N 55°60' E 012°45'0 0.0
2014-Aug-29 01:32N 55°60' E 012°45'0 0.0
2014-Aug-29 00:32N 55°60' E 012°45'0 0.0
2014-Aug-28 23:32N 55°60' E 012°45'0 0.0
2014-Aug-28 22:32N 55°60' E 012°45'0 0.0
2014-Aug-28 21:32N 55°60' E 012°45'0 0.0
2014-Aug-28 20:32N 55°60' E 012°45'0 0.0
2014-Aug-28 19:32N 55°60' E 012°45'0 0.0
2014-Aug-28 18:32N 55°60' E 012°45'0 0.0
2014-Aug-28 17:32N 55°60' E 012°45'0 0.0
2014-Aug-28 16:32N 55°60' E 012°45'0 0.0
2014-Aug-28 15:32N 55°60' E 012°45'0 0.0
2014-Aug-28 14:32N 55°60' E 012°45'0 0.0
2014-Aug-28 13:29N 55°60' E 012°45'0 0.0
2014-Aug-28 12:32N 55°60' E 012°45'0 0.0
2014-Aug-28 11:32N 55°60' E 012°45'0 0.0
2014-Aug-28 10:32N 55°60' E 012°45'3 3.5
2014-Aug-28 09:33N 55°56' E 012°45'3 3.5
2014-Aug-28 08:33N 55°60' E 012°45'0 0.0
2014-Aug-28 07:33N 55°60' E 012°45'0 0.0
2014-Aug-28 06:33N 55°60' E 012°45'0 0.0
2014-Aug-28 05:33N 55°60' E 012°45'0 0.0
2014-Aug-28 04:33N 55°60' E 012°45'0 0.0
2014-Aug-28 03:33N 55°60' E 012°45'0 0.0
2014-Aug-28 02:33N 55°60' E 012°45'0 0.0
2014-Aug-28 01:33N 55°60' E 012°45'0 0.0
2014-Aug-28 00:34N 55°60' E 012°45'0 0.0
2014-Aug-27 23:34N 55°60' E 012°45'0 0.0
2014-Aug-27 22:34N 55°60' E 012°45'0 0.0
2014-Aug-27 21:31N 55°60' E 012°45'0 0.0
2014-Aug-27 20:31N 55°60' E 012°45'0 0.0
2014-Aug-27 19:28N 55°60' E 012°45'0 0.0
2014-Aug-27 18:28N 55°60' E 012°45'0 0.0
2014-Aug-27 17:31N 55°60' E 012°45'0 0.0
2014-Aug-27 16:28N 55°60' E 012°45'0 0.0
2014-Aug-27 15:31N 55°60' E 012°45'0 0.0
2014-Aug-27 14:31N 55°60' E 012°45'0 0.0
2014-Aug-27 13:31N 55°60' E 012°45'0 0.0
2014-Aug-27 12:31N 55°60' E 012°45'0 0.0
2014-Aug-27 11:31N 55°60' E 012°45'0 0.0
2014-Aug-27 10:31N 55°60' E 012°45'0 0.0
2014-Aug-27 09:31N 55°60' E 012°45'0 0.0
2014-Aug-27 08:31N 55°60' E 012°45'0 0.0
2014-Aug-27 07:28N 55°60' E 012°45'0 0.0
2014-Aug-27 06:31N 55°60' E 012°45'0 0.0
2014-Aug-27 05:31N 55°60' E 012°45'0 0.0
2014-Aug-27 04:31N 55°60' E 012°45'0 0.0
2014-Aug-27 03:31N 55°60' E 012°45'0 0.0
2014-Aug-27 02:31N 55°60' E 012°45'0 0.0
2014-Aug-27 01:31N 55°60' E 012°45'0 0.0
2014-Aug-27 00:31N 55°60' E 012°45'0 0.0
2014-Aug-26 23:31N 55°60' E 012°45'0 0.0
2014-Aug-26 22:25N 55°60' E 012°45'0 0.0
2014-Aug-26 21:31N 55°60' E 012°45'0 0.0
2014-Aug-26 20:31N 55°60' E 012°45'0 0.0
2014-Aug-26 19:31N 55°60' E 012°45'0 0.0
2014-Aug-26 18:31N 55°60' E 012°45'0 0.0
2014-Aug-26 17:31N 55°60' E 012°45'0 0.0
2014-Aug-26 16:31N 55°60' E 012°45'0 0.0
2014-Aug-26 15:28N 55°60' E 012°45'0 0.0
2014-Aug-26 14:31N 55°60' E 012°45'0 0.0
2014-Aug-26 13:31N 55°60' E 012°45'0 0.0
2014-Aug-26 12:31N 55°60' E 012°45'0 0.0
2014-Aug-26 11:31N 55°60' E 012°45'0 0.0
2014-Aug-26 10:31N 55°60' E 012°45'0 0.0
2014-Aug-26 09:31N 55°60' E 012°45'0 0.0
2014-Aug-26 08:31N 55°60' E 012°45'0 0.0
2014-Aug-26 07:31N 55°60' E 012°45'0 0.0
2014-Aug-26 06:31N 55°60' E 012°45'0 0.0
2014-Aug-26 05:31N 55°60' E 012°45'0 0.0
2014-Aug-26 04:31N 55°60' E 012°45'0 0.0
2014-Aug-26 03:31N 55°60' E 012°45'0 0.0
2014-Aug-26 02:28N 55°60' E 012°45'0 0.0
2014-Aug-26 01:31N 55°60' E 012°45'0 0.0
2014-Aug-26 00:31N 55°60' E 012°45'0 0.0
2014-Aug-25 23:31N 55°60' E 012°45'0 0.0
2014-Aug-25 22:31N 55°60' E 012°45'0 0.0
2014-Aug-25 21:25N 55°60' E 012°45'0 0.0
2014-Aug-25 20:31N 55°60' E 012°45'0 0.0
2014-Aug-25 19:28N 55°60' E 012°45'0 0.0
2014-Aug-25 18:31N 55°60' E 012°45'0 0.0
2014-Aug-25 17:28N 55°60' E 012°45'0 0.0
2014-Aug-25 16:31N 55°60' E 012°45'0 0.0
2014-Aug-25 15:31N 55°60' E 012°45'0 0.0
2014-Aug-25 14:31N 55°60' E 012°45'0 0.0
2014-Aug-25 13:31N 55°60' E 012°45'0 0.0
2014-Aug-25 12:32N 55°60' E 012°45'0 0.0
2014-Aug-25 11:25N 55°60' E 012°45'0 0.0
2014-Aug-25 10:28N 55°60' E 012°45'0 0.0
2014-Aug-25 09:31N 55°60' E 012°45'0 0.0
2014-Aug-25 08:31N 55°60' E 012°45'0 0.0
2014-Aug-25 07:31N 55°60' E 012°45'0 0.0
2014-Aug-25 06:31N 55°60' E 012°45'0 0.0
2014-Aug-25 05:31N 55°60' E 012°45'0 0.0
2014-Aug-25 04:31N 55°60' E 012°45'0 0.0
2014-Aug-25 03:31N 55°60' E 012°45'0 0.0
2014-Aug-25 02:31N 55°60' E 012°45'0 0.0
2014-Aug-25 01:28N 55°60' E 012°45'0 0.0
2014-Aug-25 00:31N 55°60' E 012°45'0 0.0
2014-Aug-24 23:31N 55°60' E 012°45'0 0.0
2014-Aug-24 22:28N 55°60' E 012°45'0 0.0
2014-Aug-24 21:31N 55°60' E 012°45'0 0.0
2014-Aug-24 20:31N 55°60' E 012°45'0 0.0
2014-Aug-24 19:31N 55°60' E 012°45'0 0.0
2014-Aug-24 18:31N 55°60' E 012°45'0 0.0
2014-Aug-24 17:28N 55°60' E 012°45'0 0.0
2014-Aug-24 16:31N 55°60' E 012°45'0 0.0
2014-Aug-24 15:31N 55°60' E 012°45'0 0.0
2014-Aug-24 14:31N 55°60' E 012°45'0 0.0
2014-Aug-24 13:31N 55°60' E 012°45'0 0.0
2014-Aug-24 12:31N 55°60' E 012°45'0 0.0
2014-Aug-24 11:31N 55°60' E 012°45'0 0.0
2014-Aug-24 10:31N 55°60' E 012°45'4 4.0
2014-Aug-24 09:33N 55°56' E 012°43'0 0.4
2014-Aug-24 08:33N 55°56' E 012°42'0 0.4
2014-Aug-24 07:31N 55°56' E 012°42'2 1.7
2014-Aug-24 06:33N 55°58' E 012°42'2 2.4
2014-Aug-24 05:33N 55°60' E 012°45'0 0.0
2014-Aug-24 04:33N 55°60' E 012°45'0 0.0
2014-Aug-24 03:33N 55°60' E 012°45'0 0.0
2014-Aug-24 02:33N 55°60' E 012°45'0 0.0
2014-Aug-24 01:33N 55°60' E 012°45'0 0.0
2014-Aug-24 00:27N 55°60' E 012°45'0 0.0
2014-Aug-23 23:33N 55°60' E 012°45'0 0.0
2014-Aug-23 22:33N 55°60' E 012°45'0 0.0
2014-Aug-23 21:31N 55°60' E 012°45'0 0.0
2014-Aug-23 20:31N 55°60' E 012°45'0 0.0
2014-Aug-23 19:31N 55°60' E 012°45'0 0.0
2014-Aug-23 03:31N 55°60' E 012°45'0 0.0
2014-Aug-23 02:31N 55°60' E 012°45'0 0.0
2014-Aug-23 01:28N 55°60' E 012°45'0 0.0
2014-Aug-23 00:31N 55°60' E 012°45'0 0.0
2014-Aug-22 23:31N 55°60' E 012°45'0 0.0
2014-Aug-22 22:31N 55°60' E 012°45'0 0.0
2014-Aug-22 21:31N 55°60' E 012°45'0 0.0
2014-Aug-22 20:31N 55°60' E 012°45'0 0.0
2014-Aug-22 19:31N 55°60' E 012°45'0 0.0
2014-Aug-22 18:32N 55°60' E 012°45'0 0.0
2014-Aug-22 17:31N 55°60' E 012°45'0 0.0
2014-Aug-22 16:31N 55°60' E 012°45'0 0.0
2014-Aug-22 15:31N 55°60' E 012°45'0 0.0
2014-Aug-22 14:28N 55°60' E 012°45'0 0.0
2014-Aug-22 13:31N 55°60' E 012°45'0 0.0
2014-Aug-22 12:31N 55°60' E 012°45'0 0.0
2014-Aug-22 11:28N 55°60' E 012°45'0 0.0
2014-Aug-22 10:31N 55°60' E 012°45'0 0.0
2014-Aug-22 09:31N 55°60' E 012°45'0 0.0
2014-Aug-22 08:28N 55°60' E 012°45'0 0.0
2014-Aug-22 07:31N 55°60' E 012°45'0 0.0
2014-Aug-22 06:31N 55°60' E 012°45'0 0.0
2014-Aug-22 05:31N 55°60' E 012°45'0 0.0
2014-Aug-22 04:31N 55°60' E 012°45'0 0.0
2014-Aug-22 03:28N 55°60' E 012°45'0 0.0
2014-Aug-22 02:31N 55°60' E 012°45'0 0.0
2014-Aug-22 01:31N 55°60' E 012°45'0 0.0
2014-Aug-22 00:32N 55°60' E 012°45'0 0.0
2014-Aug-21 23:32N 55°60' E 012°45'0 0.0
2014-Aug-21 22:32N 55°60' E 012°45'0 0.0
2014-Aug-21 21:32N 55°60' E 012°45'0 0.0
2014-Aug-21 20:32N 55°60' E 012°45'0 0.0
2014-Aug-21 19:32N 55°60' E 012°45'4 3.9
2014-Aug-21 18:33N 55°56' E 012°43'1 0.7
2014-Aug-21 17:32N 55°55' E 012°42'0 0.0
2014-Aug-21 16:30N 55°55' E 012°42'0 0.4
2014-Aug-21 15:33N 55°56' E 012°41'4 4.2
2014-Aug-21 14:31N 55°60' E 012°45'4 3.9
2014-Aug-21 13:33N 55°56' E 012°44'1 0.7
2014-Aug-21 12:33N 55°57' E 012°43'1 0.7
2014-Aug-21 11:32N 55°57' E 012°43'2 2.5
2014-Aug-21 10:32N 55°60' E 012°45'0 0.0
2014-Aug-21 09:32N 55°60' E 012°45'0 0.0
2014-Aug-21 08:32N 55°60' E 012°45'0 0.0
2014-Aug-21 07:32N 55°60' E 012°45'0 0.0
2014-Aug-21 06:32N 55°60' E 012°45'0 0.0
2014-Aug-21 05:32N 55°60' E 012°45'0 0.0
2014-Aug-21 04:32N 55°60' E 012°45'0 0.0
2014-Aug-21 03:32N 55°60' E 012°45'0 0.0
2014-Aug-21 02:32N 55°60' E 012°45'0 0.0
2014-Aug-21 01:32N 55°60' E 012°45'0 0.0
2014-Aug-21 00:32N 55°60' E 012°45'0 0.0
2014-Aug-20 23:32N 55°60' E 012°45'0 0.0
2014-Aug-20 22:32N 55°60' E 012°45'0 0.0
2014-Aug-20 21:32N 55°60' E 012°45'0 0.0
2014-Aug-20 20:32N 55°60' E 012°45'0 0.0
2014-Aug-20 19:32N 55°60' E 012°45'0 0.0
2014-Aug-20 18:32N 55°60' E 012°45'0 0.0
2014-Aug-20 17:32N 55°60' E 012°45'0 0.0
2014-Aug-20 16:29N 55°60' E 012°45'0 0.0
2014-Aug-20 15:26N 55°60' E 012°45'0 0.0
2014-Aug-20 14:32N 55°60' E 012°45'0 0.0
2014-Aug-20 13:32N 55°60' E 012°45'0 0.0
2014-Aug-20 12:32N 55°60' E 012°45'0 0.0
2014-Aug-20 11:32N 55°60' E 012°45'0 0.0
2014-Aug-20 10:32N 55°60' E 012°45'0 0.0
2014-Aug-20 09:33N 55°60' E 012°45'0 0.0
2014-Aug-20 08:33N 55°60' E 012°45'0 0.0
2014-Aug-20 07:27N 55°60' E 012°45'0 0.0
2014-Aug-20 06:33N 55°60' E 012°45'  
Track history (hours):
 
Tides and Currents Weather Stations Pressure Air Temp Water Temp Dewpoint Dewpoint Depression Visibility Wind Speed Wind Dir Waves Ship Positions

Siam

Last reported at 2014-Aug-30 06:10 UTC. Time now 2014-Aug-30 18:29 UTC.
Position N 55°58' E 012°43'.

Length 22 m.

Type: Passenger vessel. MMSI: 265572320.

Date/timePositionNaut miles runAvg speedWind from/ knotsBaromVisibWave heightAir tempDewpointWater temp
2014-Aug-30 06:10N 55°58' E 012°43'2 0.1
2014-Aug-29 16:33N 55°60' E 012°45'0 0.0
2014-Aug-29 15:33N 55°60' E 012°45'0 0.0
2014-Aug-29 14:33N 55°60' E 012°45'0 0.0
2014-Aug-29 13:33N 55°60' E 012°45'0 0.0
2014-Aug-29 12:33N 55°60' E 012°45'3 3.0
2014-Aug-29 11:32N 55°57' E 012°42'1 1.2
2014-Aug-29 10:32N 55°56' E 012°42'0 0.4
2014-Aug-29 09:33N 55°56' E 012°42'0 0.2
2014-Aug-29 08:30N 55°56' E 012°42'0 0.3
2014-Aug-29 07:24N 55°56' E 012°42'0 0.5
2014-Aug-29 06:33N 55°57' E 012°42'3 3.3
2014-Aug-29 05:32N 55°60' E 012°45'0 0.0
2014-Aug-29 04:32N 55°60' E 012°45'0 0.0
2014-Aug-29 03:32N 55°60' E 012°45'0 0.0
2014-Aug-29 02:29N 55°60' E 012°45'0 0.0
2014-Aug-29 01:32N 55°60' E 012°45'0 0.0
2014-Aug-29 00:32N 55°60' E 012°45'0 0.0
2014-Aug-28 23:32N 55°60' E 012°45'0 0.0
2014-Aug-28 22:32N 55°60' E 012°45'0 0.0
2014-Aug-28 21:32N 55°60' E 012°45'0 0.0
2014-Aug-28 20:32N 55°60' E 012°45'0 0.0
2014-Aug-28 19:32N 55°60' E 012°45'0 0.0
2014-Aug-28 18:32N 55°60' E 012°45'0 0.0
2014-Aug-28 17:32N 55°60' E 012°45'0 0.0
2014-Aug-28 16:32N 55°60' E 012°45'0 0.0
2014-Aug-28 15:32N 55°60' E 012°45'0 0.0
2014-Aug-28 14:32N 55°60' E 012°45'0 0.0
2014-Aug-28 13:29N 55°60' E 012°45'0 0.0
2014-Aug-28 12:32N 55°60' E 012°45'0 0.0
2014-Aug-28 11:32N 55°60' E 012°45'0 0.0
2014-Aug-28 10:32N 55°60' E 012°45'3 3.5
2014-Aug-28 09:33N 55°56' E 012°45'3 3.5
2014-Aug-28 08:33N 55°60' E 012°45'0 0.0
2014-Aug-28 07:33N 55°60' E 012°45'0 0.0
2014-Aug-28 06:33N 55°60' E 012°45'0 0.0
2014-Aug-28 05:33N 55°60' E 012°45'0 0.0
2014-Aug-28 04:33N 55°60' E 012°45'0 0.0
2014-Aug-28 03:33N 55°60' E 012°45'0 0.0
2014-Aug-28 02:33N 55°60' E 012°45'0 0.0
2014-Aug-28 01:33N 55°60' E 012°45'0 0.0
2014-Aug-28 00:34N 55°60' E 012°45'0 0.0
2014-Aug-27 23:34N 55°60' E 012°45'0 0.0
2014-Aug-27 22:34N 55°60' E 012°45'0 0.0
2014-Aug-27 21:31N 55°60' E 012°45'0 0.0
2014-Aug-27 20:31N 55°60' E 012°45'0 0.0
2014-Aug-27 19:28N 55°60' E 012°45'0 0.0
2014-Aug-27 18:28N 55°60' E 012°45'0 0.0
2014-Aug-27 17:31N 55°60' E 012°45'0 0.0
2014-Aug-27 16:28N 55°60' E 012°45'0 0.0
2014-Aug-27 15:31N 55°60' E 012°45'0 0.0
2014-Aug-27 14:31N 55°60' E 012°45'0 0.0
2014-Aug-27 13:31N 55°60' E 012°45'0 0.0
2014-Aug-27 12:31N 55°60' E 012°45'0 0.0
2014-Aug-27 11:31N 55°60' E 012°45'0 0.0
2014-Aug-27 10:31N 55°60' E 012°45'0 0.0
2014-Aug-27 09:31N 55°60' E 012°45'0 0.0
2014-Aug-27 08:31N 55°60' E 012°45'0 0.0
2014-Aug-27 07:28N 55°60' E 012°45'0 0.0
2014-Aug-27 06:31N 55°60' E 012°45'0 0.0
2014-Aug-27 05:31N 55°60' E 012°45'0 0.0
2014-Aug-27 04:31N 55°60' E 012°45'0 0.0
2014-Aug-27 03:31N 55°60' E 012°45'0 0.0
2014-Aug-27 02:31N 55°60' E 012°45'0 0.0
2014-Aug-27 01:31N 55°60' E 012°45'0 0.0
2014-Aug-27 00:31N 55°60' E 012°45'0 0.0
2014-Aug-26 23:31N 55°60' E 012°45'0 0.0
2014-Aug-26 22:25N 55°60' E 012°45'0 0.0
2014-Aug-26 21:31N 55°60' E 012°45'0 0.0
2014-Aug-26 20:31N 55°60' E 012°45'0 0.0
2014-Aug-26 19:31N 55°60' E 012°45'0 0.0
2014-Aug-26 18:31N 55°60' E 012°45'0 0.0
2014-Aug-26 17:31N 55°60' E 012°45'0 0.0
2014-Aug-26 16:31N 55°60' E 012°45'0 0.0
2014-Aug-26 15:28N 55°60' E 012°45'0 0.0
2014-Aug-26 14:31N 55°60' E 012°45'0 0.0
2014-Aug-26 13:31N 55°60' E 012°45'0 0.0
2014-Aug-26 12:31N 55°60' E 012°45'0 0.0
2014-Aug-26 11:31N 55°60' E 012°45'0 0.0
2014-Aug-26 10:31N 55°60' E 012°45'0 0.0
2014-Aug-26 09:31N 55°60' E 012°45'0 0.0
2014-Aug-26 08:31N 55°60' E 012°45'0 0.0
2014-Aug-26 07:31N 55°60' E 012°45'0 0.0
2014-Aug-26 06:31N 55°60' E 012°45'0 0.0
2014-Aug-26 05:31N 55°60' E 012°45'0 0.0
2014-Aug-26 04:31N 55°60' E 012°45'0 0.0
2014-Aug-26 03:31N 55°60' E 012°45'0 0.0
2014-Aug-26 02:28N 55°60' E 012°45'0 0.0
2014-Aug-26 01:31N 55°60' E 012°45'0 0.0
2014-Aug-26 00:31N 55°60' E 012°45'0 0.0
2014-Aug-25 23:31N 55°60' E 012°45'0 0.0
2014-Aug-25 22:31N 55°60' E 012°45'0 0.0
2014-Aug-25 21:25N 55°60' E 012°45'0 0.0
2014-Aug-25 20:31N 55°60' E 012°45'0 0.0
2014-Aug-25 19:28N 55°60' E 012°45'0 0.0
2014-Aug-25 18:31N 55°60' E 012°45'0 0.0
2014-Aug-25 17:28N 55°60' E 012°45'0 0.0
2014-Aug-25 16:31N 55°60' E 012°45'0 0.0
2014-Aug-25 15:31N 55°60' E 012°45'0 0.0
2014-Aug-25 14:31N 55°60' E 012°45'0 0.0
2014-Aug-25 13:31N 55°60' E 012°45'0 0.0
2014-Aug-25 12:32N 55°60' E 012°45'0 0.0
2014-Aug-25 11:25N 55°60' E 012°45'0 0.0
2014-Aug-25 10:28N 55°60' E 012°45'0 0.0
2014-Aug-25 09:31N 55°60' E 012°45'0 0.0
2014-Aug-25 08:31N 55°60' E 012°45'0 0.0
2014-Aug-25 07:31N 55°60' E 012°45'0 0.0
2014-Aug-25 06:31N 55°60' E 012°45'0 0.0
2014-Aug-25 05:31N 55°60' E 012°45'0 0.0
2014-Aug-25 04:31N 55°60' E 012°45'0 0.0
2014-Aug-25 03:31N 55°60' E 012°45'0 0.0
2014-Aug-25 02:31N 55°60' E 012°45'0 0.0
2014-Aug-25 01:28N 55°60' E 012°45'0 0.0
2014-Aug-25 00:31N 55°60' E 012°45'0 0.0
2014-Aug-24 23:31N 55°60' E 012°45'0 0.0
2014-Aug-24 22:28N 55°60' E 012°45'0 0.0
2014-Aug-24 21:31N 55°60' E 012°45'0 0.0
2014-Aug-24 20:31N 55°60' E 012°45'0 0.0
2014-Aug-24 19:31N 55°60' E 012°45'0 0.0
2014-Aug-24 18:31N 55°60' E 012°45'0 0.0
2014-Aug-24 17:28N 55°60' E 012°45'0 0.0
2014-Aug-24 16:31N 55°60' E 012°45'0 0.0
2014-Aug-24 15:31N 55°60' E 012°45'0 0.0
2014-Aug-24 14:31N 55°60' E 012°45'0 0.0
2014-Aug-24 13:31N 55°60' E 012°45'0 0.0
2014-Aug-24 12:31N 55°60' E 012°45'0 0.0
2014-Aug-24 11:31N 55°60' E 012°45'0 0.0
2014-Aug-24 10:31N 55°60' E 012°45'4 4.0
2014-Aug-24 09:33N 55°56' E 012°43'0 0.4
2014-Aug-24 08:33N 55°56' E 012°42'0 0.4
2014-Aug-24 07:31N 55°56' E 012°42'2 1.7
2014-Aug-24 06:33N 55°58' E 012°42'2 2.4
2014-Aug-24 05:33N 55°60' E 012°45'0 0.0
2014-Aug-24 04:33N 55°60' E 012°45'0 0.0
2014-Aug-24 03:33N 55°60' E 012°45'0 0.0
2014-Aug-24 02:33N 55°60' E 012°45'0 0.0
2014-Aug-24 01:33N 55°60' E 012°45'0 0.0
2014-Aug-24 00:27N 55°60' E 012°45'0 0.0
2014-Aug-23 23:33N 55°60' E 012°45'0 0.0
2014-Aug-23 22:33N 55°60' E 012°45'0 0.0
2014-Aug-23 21:31N 55°60' E 012°45'0 0.0
2014-Aug-23 20:31N 55°60' E 012°45'0 0.0
2014-Aug-23 19:31N 55°60' E 012°45'0 0.0
2014-Aug-23 03:31N 55°60' E 012°45'0 0.0
2014-Aug-23 02:31N 55°60' E 012°45'0 0.0
2014-Aug-23 01:28N 55°60' E 012°45'0 0.0
2014-Aug-23 00:31N 55°60' E 012°45'0 0.0
2014-Aug-22 23:31N 55°60' E 012°45'0 0.0
2014-Aug-22 22:31N 55°60' E 012°45'0 0.0
2014-Aug-22 21:31N 55°60' E 012°45'0 0.0
2014-Aug-22 20:31N 55°60' E 012°45'0 0.0
2014-Aug-22 19:31N 55°60' E 012°45'0 0.0
2014-Aug-22 18:32N 55°60' E 012°45'0 0.0
2014-Aug-22 17:31N 55°60' E 012°45'0 0.0
2014-Aug-22 16:31N 55°60' E 012°45'0 0.0
2014-Aug-22 15:31N 55°60' E 012°45'0 0.0
2014-Aug-22 14:28N 55°60' E 012°45'0 0.0
2014-Aug-22 13:31N 55°60' E 012°45'0 0.0
2014-Aug-22 12:31N 55°60' E 012°45'0 0.0
2014-Aug-22 11:28N 55°60' E 012°45'0 0.0
2014-Aug-22 10:31N 55°60' E 012°45'0 0.0
2014-Aug-22 09:31N 55°60' E 012°45'0 0.0
2014-Aug-22 08:28N 55°60' E 012°45'0 0.0
2014-Aug-22 07:31N 55°60' E 012°45'0 0.0
2014-Aug-22 06:31N 55°60' E 012°45'0 0.0
2014-Aug-22 05:31N 55°60' E 012°45'0 0.0
2014-Aug-22 04:31N 55°60' E 012°45'0 0.0
2014-Aug-22 03:28N 55°60' E 012°45'0 0.0
2014-Aug-22 02:31N 55°60' E 012°45'0 0.0
2014-Aug-22 01:31N 55°60' E 012°45'0 0.0
2014-Aug-22 00:32N 55°60' E 012°45'0 0.0
2014-Aug-21 23:32N 55°60' E 012°45'0 0.0
2014-Aug-21 22:32N 55°60' E 012°45'0 0.0
2014-Aug-21 21:32N 55°60' E 012°45'0 0.0
2014-Aug-21 20:32N 55°60' E 012°45'0 0.0
2014-Aug-21 19:32N 55°60' E 012°45'4 3.9
2014-Aug-21 18:33N 55°56' E 012°43'1 0.7
2014-Aug-21 17:32N 55°55' E 012°42'0 0.0
2014-Aug-21 16:30N 55°55' E 012°42'0 0.4
2014-Aug-21 15:33N 55°56' E 012°41'4 4.2
2014-Aug-21 14:31N 55°60' E 012°45'4 3.9
2014-Aug-21 13:33N 55°56' E 012°44'1 0.7
2014-Aug-21 12:33N 55°57' E 012°43'1 0.7
2014-Aug-21 11:32N 55°57' E 012°43'2 2.5
2014-Aug-21 10:32N 55°60' E 012°45'0 0.0
2014-Aug-21 09:32N 55°60' E 012°45'0 0.0
2014-Aug-21 08:32N 55°60' E 012°45'0 0.0
2014-Aug-21 07:32N 55°60' E 012°45'0 0.0
2014-Aug-21 06:32N 55°60' E 012°45'0 0.0
2014-Aug-21 05:32N 55°60' E 012°45'0 0.0
2014-Aug-21 04:32N 55°60' E 012°45'0 0.0
2014-Aug-21 03:32N 55°60' E 012°45'0 0.0
2014-Aug-21 02:32N 55°60' E 012°45'0 0.0
2014-Aug-21 01:32N 55°60' E 012°45'0 0.0
2014-Aug-21 00:32N 55°60' E 012°45'0 0.0
2014-Aug-20 23:32N 55°60' E 012°45'0 0.0
2014-Aug-20 22:32N 55°60' E 012°45'0 0.0
2014-Aug-20 21:32N 55°60' E 012°45'0 0.0
2014-Aug-20 20:32N 55°60' E 012°45'0 0.0
2014-Aug-20 19:32N 55°60' E 012°45'0 0.0
2014-Aug-20 18:32N 55°60' E 012°45'0 0.0
2014-Aug-20 17:32N 55°60' E 012°45'0 0.0
2014-Aug-20 16:29N 55°60' E 012°45'0 0.0
2014-Aug-20 15:26N 55°60' E 012°45'0 0.0
2014-Aug-20 14:32N 55°60' E 012°45'0 0.0
2014-Aug-20 13:32N 55°60' E 012°45'0 0.0
2014-Aug-20 12:32N 55°60' E 012°45'0 0.0
2014-Aug-20 11:32N 55°60' E 012°45'0 0.0
2014-Aug-20 10:32N 55°60' E 012°45'0 0.0
2014-Aug-20 09:33N 55°60' E 012°45'0 0.0
2014-Aug-20 08:33N 55°60' E 012°45'0 0.0
2014-Aug-20 07:27N 55°60' E 012°45'0 0.0
2014-Aug-20 06:33N 55°60' E 012°45'  

Dump ship's entire track history